sensor_id;sensor_type;location;lat;lon;timestamp;P1;durP1;ratioP1;P2;durP2;ratioP2
75073;SDS011;63652;51.526;5.080;2023-12-04T00:01:00;14.80;;;6.00;;
75073;SDS011;63652;51.526;5.080;2023-12-04T00:03:26;17.38;;;6.75;;
75073;SDS011;63652;51.526;5.080;2023-12-04T00:05:52;21.63;;;7.28;;
75073;SDS011;63652;51.526;5.080;2023-12-04T00:08:17;13.55;;;5.55;;
75073;SDS011;63652;51.526;5.080;2023-12-04T00:10:42;16.95;;;5.90;;
75073;SDS011;63652;51.526;5.080;2023-12-04T00:13:07;13.63;;;5.87;;
75073;SDS011;63652;51.526;5.080;2023-12-04T00:15:33;16.87;;;5.77;;
75073;SDS011;63652;51.526;5.080;2023-12-04T00:17:58;14.50;;;6.30;;
75073;SDS011;63652;51.526;5.080;2023-12-04T00:20:23;20.40;;;5.88;;
75073;SDS011;63652;51.526;5.080;2023-12-04T00:22:49;20.90;;;6.33;;
75073;SDS011;63652;51.526;5.080;2023-12-04T00:25:14;13.68;;;5.53;;
75073;SDS011;63652;51.526;5.080;2023-12-04T00:27:39;17.63;;;5.55;;
75073;SDS011;63652;51.526;5.080;2023-12-04T00:30:07;12.80;;;5.80;;
75073;SDS011;63652;51.526;5.080;2023-12-04T00:32:33;14.73;;;6.13;;
75073;SDS011;63652;51.526;5.080;2023-12-04T00:34:58;12.10;;;5.63;;
75073;SDS011;63652;51.526;5.080;2023-12-04T00:37:23;14.70;;;5.50;;
75073;SDS011;63652;51.526;5.080;2023-12-04T00:39:48;17.15;;;6.13;;
75073;SDS011;63652;51.526;5.080;2023-12-04T00:42:14;13.55;;;4.90;;
75073;SDS011;63652;51.526;5.080;2023-12-04T00:44:39;19.08;;;6.57;;
75073;SDS011;63652;51.526;5.080;2023-12-04T00:47:04;15.00;;;6.17;;
75073;SDS011;63652;51.526;5.080;2023-12-04T00:49:30;16.67;;;5.63;;
75073;SDS011;63652;51.526;5.080;2023-12-04T00:51:55;17.52;;;5.90;;
75073;SDS011;63652;51.526;5.080;2023-12-04T00:54:20;14.37;;;6.53;;
75073;SDS011;63652;51.526;5.080;2023-12-04T00:56:45;16.93;;;5.60;;
75073;SDS011;63652;51.526;5.080;2023-12-04T00:59:11;15.05;;;5.22;;
75073;SDS011;63652;51.526;5.080;2023-12-04T01:01:36;13.50;;;6.68;;
75073;SDS011;63652;51.526;5.080;2023-12-04T01:04:02;15.20;;;6.25;;
75073;SDS011;63652;51.526;5.080;2023-12-04T01:06:27;13.20;;;5.18;;
75073;SDS011;63652;51.526;5.080;2023-12-04T01:08:53;11.27;;;4.77;;
75073;SDS011;63652;51.526;5.080;2023-12-04T01:11:25;15.57;;;4.82;;
75073;SDS011;63652;51.526;5.080;2023-12-04T01:13:50;11.80;;;4.60;;
75073;SDS011;63652;51.526;5.080;2023-12-04T01:16:15;11.55;;;4.72;;
75073;SDS011;63652;51.526;5.080;2023-12-04T01:18:45;8.25;;;3.97;;
75073;SDS011;63652;51.526;5.080;2023-12-04T01:21:10;13.43;;;4.97;;
75073;SDS011;63652;51.526;5.080;2023-12-04T01:23:36;15.52;;;6.10;;
75073;SDS011;63652;51.526;5.080;2023-12-04T01:26:01;13.90;;;5.30;;
75073;SDS011;63652;51.526;5.080;2023-12-04T01:28:27;14.52;;;5.40;;
75073;SDS011;63652;51.526;5.080;2023-12-04T01:30:52;16.60;;;6.70;;
75073;SDS011;63652;51.526;5.080;2023-12-04T01:33:17;16.55;;;5.22;;
75073;SDS011;63652;51.526;5.080;2023-12-04T01:35:43;13.38;;;4.88;;
75073;SDS011;63652;51.526;5.080;2023-12-04T01:38:08;13.50;;;5.85;;
75073;SDS011;63652;51.526;5.080;2023-12-04T01:40:33;16.17;;;6.25;;
75073;SDS011;63652;51.526;5.080;2023-12-04T01:42:59;13.07;;;5.75;;
75073;SDS011;63652;51.526;5.080;2023-12-04T01:45:24;12.27;;;5.95;;
75073;SDS011;63652;51.526;5.080;2023-12-04T01:47:49;12.82;;;5.03;;
75073;SDS011;63652;51.526;5.080;2023-12-04T01:50:15;17.27;;;5.82;;
75073;SDS011;63652;51.526;5.080;2023-12-04T01:52:59;15.35;;;6.05;;
75073;SDS011;63652;51.526;5.080;2023-12-04T01:55:25;20.08;;;5.07;;
75073;SDS011;63652;51.526;5.080;2023-12-04T01:57:50;13.05;;;5.68;;
75073;SDS011;63652;51.526;5.080;2023-12-04T02:00:16;10.70;;;4.97;;
75073;SDS011;63652;51.526;5.080;2023-12-04T02:02:42;12.20;;;5.10;;
75073;SDS011;63652;51.526;5.080;2023-12-04T02:05:08;11.48;;;4.72;;
75073;SDS011;63652;51.526;5.080;2023-12-04T02:07:34;12.75;;;5.65;;
75073;SDS011;63652;51.526;5.080;2023-12-04T02:10:00;15.75;;;5.65;;
75073;SDS011;63652;51.526;5.080;2023-12-04T02:12:26;15.75;;;5.95;;
75073;SDS011;63652;51.526;5.080;2023-12-04T02:14:52;13.45;;;6.18;;
75073;SDS011;63652;51.526;5.080;2023-12-04T02:17:17;14.07;;;4.63;;
75073;SDS011;63652;51.526;5.080;2023-12-04T02:19:43;11.90;;;4.90;;
75073;SDS011;63652;51.526;5.080;2023-12-04T02:22:09;10.43;;;3.90;;
75073;SDS011;63652;51.526;5.080;2023-12-04T02:24:34;17.00;;;5.50;;
75073;SDS011;63652;51.526;5.080;2023-12-04T02:27:04;10.25;;;5.38;;
75073;SDS011;63652;51.526;5.080;2023-12-04T02:29:36;10.07;;;4.72;;
75073;SDS011;63652;51.526;5.080;2023-12-04T02:32:03;11.55;;;5.28;;
75073;SDS011;63652;51.526;5.080;2023-12-04T02:34:29;12.85;;;5.97;;
75073;SDS011;63652;51.526;5.080;2023-12-04T02:36:56;13.75;;;5.57;;
75073;SDS011;63652;51.526;5.080;2023-12-04T02:39:23;9.32;;;4.07;;
75073;SDS011;63652;51.526;5.080;2023-12-04T02:41:48;14.25;;;4.85;;
75073;SDS011;63652;51.526;5.080;2023-12-04T02:44:13;12.90;;;4.15;;
75073;SDS011;63652;51.526;5.080;2023-12-04T02:46:39;12.73;;;4.75;;
75073;SDS011;63652;51.526;5.080;2023-12-04T02:49:04;13.82;;;5.07;;
75073;SDS011;63652;51.526;5.080;2023-12-04T02:51:29;12.32;;;5.35;;
75073;SDS011;63652;51.526;5.080;2023-12-04T02:53:54;12.87;;;4.83;;
75073;SDS011;63652;51.526;5.080;2023-12-04T02:56:20;13.87;;;4.63;;
75073;SDS011;63652;51.526;5.080;2023-12-04T02:58:45;13.90;;;4.88;;
75073;SDS011;63652;51.526;5.080;2023-12-04T03:01:10;11.77;;;5.50;;
75073;SDS011;63652;51.526;5.080;2023-12-04T03:03:36;13.07;;;5.50;;
75073;SDS011;63652;51.526;5.080;2023-12-04T03:06:01;15.05;;;4.95;;
75073;SDS011;63652;51.526;5.080;2023-12-04T03:08:26;11.23;;;3.83;;
75073;SDS011;63652;51.526;5.080;2023-12-04T03:10:52;10.68;;;4.35;;
75073;SDS011;63652;51.526;5.080;2023-12-04T03:13:17;9.57;;;4.57;;
75073;SDS011;63652;51.526;5.080;2023-12-04T03:15:45;11.75;;;4.40;;
75073;SDS011;63652;51.526;5.080;2023-12-04T03:18:10;12.68;;;4.72;;
75073;SDS011;63652;51.526;5.080;2023-12-04T03:20:35;14.00;;;4.65;;
75073;SDS011;63652;51.526;5.080;2023-12-04T03:23:01;11.60;;;4.93;;
75073;SDS011;63652;51.526;5.080;2023-12-04T03:25:26;12.40;;;4.15;;
75073;SDS011;63652;51.526;5.080;2023-12-04T03:27:54;9.48;;;4.30;;
75073;SDS011;63652;51.526;5.080;2023-12-04T03:30:19;10.35;;;5.00;;
75073;SDS011;63652;51.526;5.080;2023-12-04T03:32:45;14.90;;;4.78;;
75073;SDS011;63652;51.526;5.080;2023-12-04T03:35:10;14.48;;;3.92;;
75073;SDS011;63652;51.526;5.080;2023-12-04T03:37:36;12.77;;;5.27;;
75073;SDS011;63652;51.526;5.080;2023-12-04T03:40:01;11.25;;;4.68;;
75073;SDS011;63652;51.526;5.080;2023-12-04T03:42:27;10.40;;;4.68;;
75073;SDS011;63652;51.526;5.080;2023-12-04T03:44:52;8.45;;;3.60;;
75073;SDS011;63652;51.526;5.080;2023-12-04T03:47:17;14.20;;;4.85;;
75073;SDS011;63652;51.526;5.080;2023-12-04T03:49:42;12.77;;;4.63;;
75073;SDS011;63652;51.526;5.080;2023-12-04T03:52:08;10.60;;;4.68;;
75073;SDS011;63652;51.526;5.080;2023-12-04T03:54:33;14.50;;;5.03;;
75073;SDS011;63652;51.526;5.080;2023-12-04T03:56:58;11.97;;;5.13;;
75073;SDS011;63652;51.526;5.080;2023-12-04T03:59:24;12.90;;;5.30;;
75073;SDS011;63652;51.526;5.080;2023-12-04T04:01:49;9.30;;;4.33;;
75073;SDS011;63652;51.526;5.080;2023-12-04T04:04:14;12.05;;;4.65;;
75073;SDS011;63652;51.526;5.080;2023-12-04T04:06:39;10.80;;;4.55;;
75073;SDS011;63652;51.526;5.080;2023-12-04T04:09:05;11.05;;;4.43;;
75073;SDS011;63652;51.526;5.080;2023-12-04T04:11:30;12.55;;;5.30;;
75073;SDS011;63652;51.526;5.080;2023-12-04T04:13:56;9.70;;;4.10;;
75073;SDS011;63652;51.526;5.080;2023-12-04T04:16:24;11.32;;;4.45;;
75073;SDS011;63652;51.526;5.080;2023-12-04T04:18:49;14.45;;;4.72;;
75073;SDS011;63652;51.526;5.080;2023-12-04T04:21:15;13.52;;;4.68;;
75073;SDS011;63652;51.526;5.080;2023-12-04T04:23:40;11.52;;;4.40;;
75073;SDS011;63652;51.526;5.080;2023-12-04T04:26:05;11.20;;;4.78;;
75073;SDS011;63652;51.526;5.080;2023-12-04T04:28:31;9.00;;;4.28;;
75073;SDS011;63652;51.526;5.080;2023-12-04T04:30:56;12.05;;;4.03;;
75073;SDS011;63652;51.526;5.080;2023-12-04T04:33:21;8.07;;;3.47;;
75073;SDS011;63652;51.526;5.080;2023-12-04T04:35:47;8.60;;;3.50;;
75073;SDS011;63652;51.526;5.080;2023-12-04T04:38:12;11.80;;;4.35;;
75073;SDS011;63652;51.526;5.080;2023-12-04T04:40:37;10.47;;;3.63;;
75073;SDS011;63652;51.526;5.080;2023-12-04T04:43:07;10.82;;;3.90;;
75073;SDS011;63652;51.526;5.080;2023-12-04T04:45:32;10.00;;;4.30;;
75073;SDS011;63652;51.526;5.080;2023-12-04T04:47:57;12.10;;;4.83;;
75073;SDS011;63652;51.526;5.080;2023-12-04T04:50:22;9.13;;;3.80;;
75073;SDS011;63652;51.526;5.080;2023-12-04T04:52:48;10.30;;;4.57;;
75073;SDS011;63652;51.526;5.080;2023-12-04T04:55:13;10.90;;;4.15;;
75073;SDS011;63652;51.526;5.080;2023-12-04T04:57:38;10.07;;;4.68;;
75073;SDS011;63652;51.526;5.080;2023-12-04T05:00:04;8.65;;;3.25;;
75073;SDS011;63652;51.526;5.080;2023-12-04T05:02:29;12.10;;;4.57;;
75073;SDS011;63652;51.526;5.080;2023-12-04T05:04:54;10.27;;;3.78;;
75073;SDS011;63652;51.526;5.080;2023-12-04T05:07:20;8.73;;;3.60;;
75073;SDS011;63652;51.526;5.080;2023-12-04T05:09:45;13.67;;;4.00;;
75073;SDS011;63652;51.526;5.080;2023-12-04T05:12:10;11.30;;;3.83;;
75073;SDS011;63652;51.526;5.080;2023-12-04T05:14:35;7.47;;;3.40;;
75073;SDS011;63652;51.526;5.080;2023-12-04T05:17:06;8.93;;;3.35;;
75073;SDS011;63652;51.526;5.080;2023-12-04T05:19:34;10.52;;;3.90;;
75073;SDS011;63652;51.526;5.080;2023-12-04T05:21:59;6.45;;;3.65;;
75073;SDS011;63652;51.526;5.080;2023-12-04T05:24:24;5.97;;;2.83;;
75073;SDS011;63652;51.526;5.080;2023-12-04T05:26:49;9.95;;;4.18;;
75073;SDS011;63652;51.526;5.080;2023-12-04T05:29:15;6.88;;;2.83;;
75073;SDS011;63652;51.526;5.080;2023-12-04T05:31:40;5.45;;;2.45;;
75073;SDS011;63652;51.526;5.080;2023-12-04T05:34:06;14.20;;;3.30;;
75073;SDS011;63652;51.526;5.080;2023-12-04T05:36:31;7.30;;;2.85;;
75073;SDS011;63652;51.526;5.080;2023-12-04T05:38:56;10.57;;;3.65;;
75073;SDS011;63652;51.526;5.080;2023-12-04T05:41:22;8.18;;;2.78;;
75073;SDS011;63652;51.526;5.080;2023-12-04T05:43:47;6.15;;;2.97;;
75073;SDS011;63652;51.526;5.080;2023-12-04T05:46:15;8.27;;;3.25;;
75073;SDS011;63652;51.526;5.080;2023-12-04T05:48:40;13.93;;;3.53;;
75073;SDS011;63652;51.526;5.080;2023-12-04T05:51:05;5.97;;;2.42;;
75073;SDS011;63652;51.526;5.080;2023-12-04T05:53:31;9.30;;;3.22;;
75073;SDS011;63652;51.526;5.080;2023-12-04T05:55:56;9.90;;;3.75;;
75073;SDS011;63652;51.526;5.080;2023-12-04T05:58:22;6.68;;;2.60;;
75073;SDS011;63652;51.526;5.080;2023-12-04T06:00:49;8.32;;;3.33;;
75073;SDS011;63652;51.526;5.080;2023-12-04T06:03:15;9.30;;;3.55;;
75073;SDS011;63652;51.526;5.080;2023-12-04T06:05:40;10.88;;;3.60;;
75073;SDS011;63652;51.526;5.080;2023-12-04T06:08:06;8.82;;;3.85;;
75073;SDS011;63652;51.526;5.080;2023-12-04T06:10:31;10.15;;;3.35;;
75073;SDS011;63652;51.526;5.080;2023-12-04T06:13:01;10.60;;;3.10;;
75073;SDS011;63652;51.526;5.080;2023-12-04T06:15:43;6.47;;;3.08;;
75073;SDS011;63652;51.526;5.080;2023-12-04T06:18:14;12.65;;;4.18;;
75073;SDS011;63652;51.526;5.080;2023-12-04T06:20:40;6.55;;;3.30;;
75073;SDS011;63652;51.526;5.080;2023-12-04T06:23:08;4.90;;;2.53;;
75073;SDS011;63652;51.526;5.080;2023-12-04T06:25:33;13.13;;;3.95;;
75073;SDS011;63652;51.526;5.080;2023-12-04T06:27:59;7.63;;;3.63;;
75073;SDS011;63652;51.526;5.080;2023-12-04T06:30:25;8.15;;;2.70;;
75073;SDS011;63652;51.526;5.080;2023-12-04T06:32:53;7.50;;;3.53;;
75073;SDS011;63652;51.526;5.080;2023-12-04T06:35:18;4.78;;;2.53;;
75073;SDS011;63652;51.526;5.080;2023-12-04T06:37:44;9.98;;;3.50;;
75073;SDS011;63652;51.526;5.080;2023-12-04T06:40:10;8.23;;;3.75;;
75073;SDS011;63652;51.526;5.080;2023-12-04T06:42:52;8.77;;;2.17;;
75073;SDS011;63652;51.526;5.080;2023-12-04T06:45:17;8.15;;;3.30;;
75073;SDS011;63652;51.526;5.080;2023-12-04T06:47:52;7.15;;;3.08;;
75073;SDS011;63652;51.526;5.080;2023-12-04T06:50:24;9.95;;;3.40;;
75073;SDS011;63652;51.526;5.080;2023-12-04T06:52:49;6.45;;;3.03;;
75073;SDS011;63652;51.526;5.080;2023-12-04T06:55:14;5.35;;;2.72;;
75073;SDS011;63652;51.526;5.080;2023-12-04T06:57:40;8.13;;;3.53;;
75073;SDS011;63652;51.526;5.080;2023-12-04T07:00:06;9.77;;;3.88;;
75073;SDS011;63652;51.526;5.080;2023-12-04T07:02:32;4.47;;;2.60;;
75073;SDS011;63652;51.526;5.080;2023-12-04T07:04:57;11.60;;;3.83;;
75073;SDS011;63652;51.526;5.080;2023-12-04T07:07:23;8.35;;;3.92;;
75073;SDS011;63652;51.526;5.080;2023-12-04T07:09:54;9.07;;;3.95;;
75073;SDS011;63652;51.526;5.080;2023-12-04T07:12:19;6.00;;;3.20;;
75073;SDS011;63652;51.526;5.080;2023-12-04T07:14:45;9.07;;;3.83;;
75073;SDS011;63652;51.526;5.080;2023-12-04T07:17:10;6.03;;;2.95;;
75073;SDS011;63652;51.526;5.080;2023-12-04T07:19:36;6.47;;;3.20;;
75073;SDS011;63652;51.526;5.080;2023-12-04T07:22:02;8.32;;;3.75;;
75073;SDS011;63652;51.526;5.080;2023-12-04T07:24:27;10.02;;;3.05;;
75073;SDS011;63652;51.526;5.080;2023-12-04T07:26:53;1.77;;;1.00;;
75073;SDS011;63652;51.526;5.080;2023-12-04T07:29:18;6.43;;;2.95;;
75073;SDS011;63652;51.526;5.080;2023-12-04T07:31:43;7.60;;;3.33;;
75073;SDS011;63652;51.526;5.080;2023-12-04T07:34:09;5.75;;;2.92;;
75073;SDS011;63652;51.526;5.080;2023-12-04T07:36:34;5.65;;;2.58;;
75073;SDS011;63652;51.526;5.080;2023-12-04T07:38:59;9.00;;;3.38;;
75073;SDS011;63652;51.526;5.080;2023-12-04T07:41:25;9.07;;;3.10;;
75073;SDS011;63652;51.526;5.080;2023-12-04T07:43:50;9.00;;;3.55;;
75073;SDS011;63652;51.526;5.080;2023-12-04T07:46:16;7.85;;;3.30;;
75073;SDS011;63652;51.526;5.080;2023-12-04T07:48:48;9.25;;;3.13;;
75073;SDS011;63652;51.526;5.080;2023-12-04T07:51:23;6.75;;;2.05;;
75073;SDS011;63652;51.526;5.080;2023-12-04T07:53:48;4.43;;;2.22;;
75073;SDS011;63652;51.526;5.080;2023-12-04T07:56:13;9.48;;;3.13;;
75073;SDS011;63652;51.526;5.080;2023-12-04T07:58:39;4.97;;;1.92;;
75073;SDS011;63652;51.526;5.080;2023-12-04T08:01:09;5.93;;;2.70;;
75073;SDS011;63652;51.526;5.080;2023-12-04T08:03:37;7.53;;;3.00;;
75073;SDS011;63652;51.526;5.080;2023-12-04T08:06:02;5.57;;;3.13;;
75073;SDS011;63652;51.526;5.080;2023-12-04T08:08:28;4.43;;;2.13;;
75073;SDS011;63652;51.526;5.080;2023-12-04T08:10:53;6.88;;;3.75;;
75073;SDS011;63652;51.526;5.080;2023-12-04T08:13:24;6.55;;;3.20;;
75073;SDS011;63652;51.526;5.080;2023-12-04T08:15:49;9.80;;;3.70;;
75073;SDS011;63652;51.526;5.080;2023-12-04T08:18:14;6.57;;;2.90;;
75073;SDS011;63652;51.526;5.080;2023-12-04T08:20:40;7.50;;;2.13;;
75073;SDS011;63652;51.526;5.080;2023-12-04T08:23:05;3.33;;;2.28;;
75073;SDS011;63652;51.526;5.080;2023-12-04T08:25:31;2.55;;;1.20;;
75073;SDS011;63652;51.526;5.080;2023-12-04T08:27:58;4.50;;;1.88;;
75073;SDS011;63652;51.526;5.080;2023-12-04T08:30:23;7.22;;;3.03;;
75073;SDS011;63652;51.526;5.080;2023-12-04T08:32:49;4.85;;;3.20;;
75073;SDS011;63652;51.526;5.080;2023-12-04T08:35:14;2.85;;;1.42;;
75073;SDS011;63652;51.526;5.080;2023-12-04T08:37:40;4.60;;;1.85;;
75073;SDS011;63652;51.526;5.080;2023-12-04T08:40:06;7.40;;;2.45;;
75073;SDS011;63652;51.526;5.080;2023-12-04T08:42:33;4.93;;;2.38;;
75073;SDS011;63652;51.526;5.080;2023-12-04T08:44:59;3.83;;;1.95;;
75073;SDS011;63652;51.526;5.080;2023-12-04T08:47:24;4.53;;;2.38;;
75073;SDS011;63652;51.526;5.080;2023-12-04T08:49:50;4.03;;;1.85;;
75073;SDS011;63652;51.526;5.080;2023-12-04T08:52:15;4.32;;;1.65;;
75073;SDS011;63652;51.526;5.080;2023-12-04T08:54:40;4.18;;;2.03;;
75073;SDS011;63652;51.526;5.080;2023-12-04T08:57:06;5.15;;;2.72;;
75073;SDS011;63652;51.526;5.080;2023-12-04T08:59:32;7.50;;;2.95;;
75073;SDS011;63652;51.526;5.080;2023-12-04T09:01:57;3.97;;;1.85;;
75073;SDS011;63652;51.526;5.080;2023-12-04T09:04:23;4.80;;;2.10;;
75073;SDS011;63652;51.526;5.080;2023-12-04T09:06:48;4.13;;;1.88;;
75073;SDS011;63652;51.526;5.080;2023-12-04T09:09:14;4.15;;;1.80;;
75073;SDS011;63652;51.526;5.080;2023-12-04T09:11:44;5.60;;;2.72;;
75073;SDS011;63652;51.526;5.080;2023-12-04T09:14:09;4.97;;;2.20;;
75073;SDS011;63652;51.526;5.080;2023-12-04T09:16:34;4.13;;;2.22;;
75073;SDS011;63652;51.526;5.080;2023-12-04T09:19:00;3.78;;;1.85;;
75073;SDS011;63652;51.526;5.080;2023-12-04T09:21:25;6.35;;;2.15;;
75073;SDS011;63652;51.526;5.080;2023-12-04T09:23:54;4.32;;;2.60;;
75073;SDS011;63652;51.526;5.080;2023-12-04T09:26:20;5.88;;;2.63;;
75073;SDS011;63652;51.526;5.080;2023-12-04T09:28:45;5.40;;;1.85;;
75073;SDS011;63652;51.526;5.080;2023-12-04T09:31:11;1.83;;;1.02;;
75073;SDS011;63652;51.526;5.080;2023-12-04T09:33:36;5.78;;;2.67;;
75073;SDS011;63652;51.526;5.080;2023-12-04T09:36:05;4.90;;;2.33;;
75073;SDS011;63652;51.526;5.080;2023-12-04T09:38:30;3.60;;;1.27;;
75073;SDS011;63652;51.526;5.080;2023-12-04T09:40:59;3.25;;;1.30;;
75073;SDS011;63652;51.526;5.080;2023-12-04T09:43:30;3.15;;;1.27;;
75073;SDS011;63652;51.526;5.080;2023-12-04T09:45:56;3.53;;;1.95;;
75073;SDS011;63652;51.526;5.080;2023-12-04T09:48:25;4.53;;;2.10;;
75073;SDS011;63652;51.526;5.080;2023-12-04T09:50:57;5.43;;;1.65;;
75073;SDS011;63652;51.526;5.080;2023-12-04T09:53:22;4.65;;;2.13;;
75073;SDS011;63652;51.526;5.080;2023-12-04T09:55:57;6.85;;;2.08;;
75073;SDS011;63652;51.526;5.080;2023-12-04T09:58:25;8.05;;;2.20;;
75073;SDS011;63652;51.526;5.080;2023-12-04T10:00:51;5.07;;;2.42;;
75073;SDS011;63652;51.526;5.080;2023-12-04T10:03:20;8.05;;;2.72;;
75073;SDS011;63652;51.526;5.080;2023-12-04T10:05:45;4.03;;;1.60;;
75073;SDS011;63652;51.526;5.080;2023-12-04T10:08:10;5.32;;;1.88;;
75073;SDS011;63652;51.526;5.080;2023-12-04T10:10:36;6.20;;;2.25;;
75073;SDS011;63652;51.526;5.080;2023-12-04T10:13:01;5.88;;;2.75;;
75073;SDS011;63652;51.526;5.080;2023-12-04T10:15:26;4.60;;;1.90;;
75073;SDS011;63652;51.526;5.080;2023-12-04T10:17:52;2.35;;;1.92;;
75073;SDS011;63652;51.526;5.080;2023-12-04T10:20:19;13.68;;;2.33;;
75073;SDS011;63652;51.526;5.080;2023-12-04T10:25:18;4.57;;;2.63;;
75073;SDS011;63652;51.526;5.080;2023-12-04T10:27:44;6.70;;;2.38;;
75073;SDS011;63652;51.526;5.080;2023-12-04T10:30:09;5.80;;;2.42;;
75073;SDS011;63652;51.526;5.080;2023-12-04T10:32:40;3.22;;;1.27;;
75073;SDS011;63652;51.526;5.080;2023-12-04T10:35:06;4.72;;;1.75;;
75073;SDS011;63652;51.526;5.080;2023-12-04T10:37:38;4.82;;;1.83;;
75073;SDS011;63652;51.526;5.080;2023-12-04T10:40:03;2.47;;;0.93;;
75073;SDS011;63652;51.526;5.080;2023-12-04T10:42:29;3.67;;;1.73;;
75073;SDS011;63652;51.526;5.080;2023-12-04T10:44:58;6.05;;;2.45;;
75073;SDS011;63652;51.526;5.080;2023-12-04T10:47:24;7.60;;;2.17;;
75073;SDS011;63652;51.526;5.080;2023-12-04T10:49:49;5.80;;;1.98;;
75073;SDS011;63652;51.526;5.080;2023-12-04T10:52:15;3.85;;;2.70;;
75073;SDS011;63652;51.526;5.080;2023-12-04T10:54:40;3.40;;;2.33;;
75073;SDS011;63652;51.526;5.080;2023-12-04T10:57:06;6.57;;;2.80;;
75073;SDS011;63652;51.526;5.080;2023-12-04T10:59:36;7.03;;;2.60;;
75073;SDS011;63652;51.526;5.080;2023-12-04T11:02:01;5.55;;;2.60;;
75073;SDS011;63652;51.526;5.080;2023-12-04T11:04:33;5.50;;;2.58;;
75073;SDS011;63652;51.526;5.080;2023-12-04T11:07:01;4.88;;;2.53;;
75073;SDS011;63652;51.526;5.080;2023-12-04T11:09:28;9.40;;;2.25;;
75073;SDS011;63652;51.526;5.080;2023-12-04T11:11:56;5.72;;;2.78;;
75073;SDS011;63652;51.526;5.080;2023-12-04T11:14:22;5.65;;;2.47;;
75073;SDS011;63652;51.526;5.080;2023-12-04T11:16:53;6.53;;;2.63;;
75073;SDS011;63652;51.526;5.080;2023-12-04T11:22:06;7.78;;;3.15;;
75073;SDS011;63652;51.526;5.080;2023-12-04T11:24:33;5.90;;;2.47;;
75073;SDS011;63652;51.526;5.080;2023-12-04T11:27:00;6.70;;;2.65;;
75073;SDS011;63652;51.526;5.080;2023-12-04T11:29:25;8.02;;;3.33;;
75073;SDS011;63652;51.526;5.080;2023-12-04T11:31:54;5.78;;;3.22;;
75073;SDS011;63652;51.526;5.080;2023-12-04T11:34:23;7.90;;;2.83;;
75073;SDS011;63652;51.526;5.080;2023-12-04T11:36:56;6.72;;;2.65;;
75073;SDS011;63652;51.526;5.080;2023-12-04T11:39:27;4.85;;;2.58;;
75073;SDS011;63652;51.526;5.080;2023-12-04T11:41:55;5.72;;;2.72;;
75073;SDS011;63652;51.526;5.080;2023-12-04T11:44:20;7.68;;;3.28;;
75073;SDS011;63652;51.526;5.080;2023-12-04T11:47:05;5.18;;;2.47;;
75073;SDS011;63652;51.526;5.080;2023-12-04T11:49:31;5.18;;;2.53;;
75073;SDS011;63652;51.526;5.080;2023-12-04T11:51:59;7.35;;;3.20;;
75073;SDS011;63652;51.526;5.080;2023-12-04T11:54:26;6.00;;;2.78;;
75073;SDS011;63652;51.526;5.080;2023-12-04T11:56:59;5.97;;;2.17;;
75073;SDS011;63652;51.526;5.080;2023-12-04T11:59:24;5.10;;;2.38;;
75073;SDS011;63652;51.526;5.080;2023-12-04T12:01:50;7.15;;;3.17;;
75073;SDS011;63652;51.526;5.080;2023-12-04T12:04:15;7.55;;;3.50;;
75073;SDS011;63652;51.526;5.080;2023-12-04T12:06:42;4.80;;;2.00;;
75073;SDS011;63652;51.526;5.080;2023-12-04T12:09:07;5.35;;;3.10;;
75073;SDS011;63652;51.526;5.080;2023-12-04T12:11:33;7.22;;;2.92;;
75073;SDS011;63652;51.526;5.080;2023-12-04T12:14:00;4.80;;;2.38;;
75073;SDS011;63652;51.526;5.080;2023-12-04T12:16:26;4.93;;;1.63;;
75073;SDS011;63652;51.526;5.080;2023-12-04T12:18:52;6.85;;;1.95;;
75073;SDS011;63652;51.526;5.080;2023-12-04T12:21:18;6.65;;;2.63;;
75073;SDS011;63652;51.526;5.080;2023-12-04T12:23:43;5.80;;;2.97;;
75073;SDS011;63652;51.526;5.080;2023-12-04T12:26:11;3.75;;;2.13;;
75073;SDS011;63652;51.526;5.080;2023-12-04T12:28:37;5.93;;;2.35;;
75073;SDS011;63652;51.526;5.080;2023-12-04T12:31:02;7.72;;;3.28;;
75073;SDS011;63652;51.526;5.080;2023-12-04T12:33:28;7.18;;;3.03;;
75073;SDS011;63652;51.526;5.080;2023-12-04T12:35:54;9.52;;;3.40;;
75073;SDS011;63652;51.526;5.080;2023-12-04T12:38:19;7.07;;;3.15;;
75073;SDS011;63652;51.526;5.080;2023-12-04T12:40:45;5.43;;;2.95;;
75073;SDS011;63652;51.526;5.080;2023-12-04T12:43:11;5.85;;;2.92;;
75073;SDS011;63652;51.526;5.080;2023-12-04T12:45:42;3.42;;;2.10;;
75073;SDS011;63652;51.526;5.080;2023-12-04T12:48:14;5.03;;;2.72;;
75073;SDS011;63652;51.526;5.080;2023-12-04T12:50:43;6.68;;;2.90;;
75073;SDS011;63652;51.526;5.080;2023-12-04T12:53:14;6.13;;;2.38;;
75073;SDS011;63652;51.526;5.080;2023-12-04T12:55:40;7.05;;;2.33;;
75073;SDS011;63652;51.526;5.080;2023-12-04T12:58:08;5.53;;;2.30;;
75073;SDS011;63652;51.526;5.080;2023-12-04T13:00:34;5.38;;;2.53;;
75073;SDS011;63652;51.526;5.080;2023-12-04T13:02:59;9.18;;;3.25;;
75073;SDS011;63652;51.526;5.080;2023-12-04T13:05:24;4.68;;;2.65;;
75073;SDS011;63652;51.526;5.080;2023-12-04T13:07:50;4.65;;;2.33;;
75073;SDS011;63652;51.526;5.080;2023-12-04T13:10:18;5.65;;;3.65;;
75073;SDS011;63652;51.526;5.080;2023-12-04T13:12:44;3.92;;;1.77;;
75073;SDS011;63652;51.526;5.080;2023-12-04T13:15:09;6.18;;;3.38;;
75073;SDS011;63652;51.526;5.080;2023-12-04T13:17:38;8.80;;;3.78;;
75073;SDS011;63652;51.526;5.080;2023-12-04T13:20:04;8.77;;;3.35;;
75073;SDS011;63652;51.526;5.080;2023-12-04T13:22:30;6.43;;;3.13;;
75073;SDS011;63652;51.526;5.080;2023-12-04T13:24:57;7.38;;;2.40;;
75073;SDS011;63652;51.526;5.080;2023-12-04T13:27:23;7.50;;;3.00;;
75073;SDS011;63652;51.526;5.080;2023-12-04T13:29:48;7.05;;;3.50;;
75073;SDS011;63652;51.526;5.080;2023-12-04T13:32:15;7.50;;;3.17;;
75073;SDS011;63652;51.526;5.080;2023-12-04T13:34:40;9.00;;;3.90;;
75073;SDS011;63652;51.526;5.080;2023-12-04T13:37:08;6.32;;;3.25;;
75073;SDS011;63652;51.526;5.080;2023-12-04T13:39:33;7.57;;;3.95;;
75073;SDS011;63652;51.526;5.080;2023-12-04T13:42:24;8.40;;;3.90;;
75073;SDS011;63652;51.526;5.080;2023-12-04T13:45:08;7.50;;;4.05;;
75073;SDS011;63652;51.526;5.080;2023-12-04T13:47:37;8.75;;;3.65;;
75073;SDS011;63652;51.526;5.080;2023-12-04T13:50:03;9.82;;;3.95;;
75073;SDS011;63652;51.526;5.080;2023-12-04T13:52:28;8.98;;;3.80;;
75073;SDS011;63652;51.526;5.080;2023-12-04T13:54:58;7.97;;;4.03;;
75073;SDS011;63652;51.526;5.080;2023-12-04T13:57:23;8.45;;;3.58;;
75073;SDS011;63652;51.526;5.080;2023-12-04T13:59:59;7.28;;;2.50;;
75073;SDS011;63652;51.526;5.080;2023-12-04T14:02:27;9.27;;;5.03;;
75073;SDS011;63652;51.526;5.080;2023-12-04T14:04:56;5.55;;;2.55;;
75073;SDS011;63652;51.526;5.080;2023-12-04T14:07:22;7.07;;;3.20;;
75073;SDS011;63652;51.526;5.080;2023-12-04T14:09:48;6.35;;;2.97;;
75073;SDS011;63652;51.526;5.080;2023-12-04T14:12:13;9.70;;;4.05;;
75073;SDS011;63652;51.526;5.080;2023-12-04T14:14:41;5.03;;;2.92;;
75073;SDS011;63652;51.526;5.080;2023-12-04T14:17:06;8.50;;;3.70;;
75073;SDS011;63652;51.526;5.080;2023-12-04T14:19:32;8.45;;;3.38;;
75073;SDS011;63652;51.526;5.080;2023-12-04T14:21:58;9.55;;;4.72;;
75073;SDS011;63652;51.526;5.080;2023-12-04T14:24:25;12.75;;;4.07;;
75073;SDS011;63652;51.526;5.080;2023-12-04T14:26:54;8.10;;;4.70;;
75073;SDS011;63652;51.526;5.080;2023-12-04T14:29:19;10.55;;;5.05;;
75073;SDS011;63652;51.526;5.080;2023-12-04T14:31:45;9.05;;;5.00;;
75073;SDS011;63652;51.526;5.080;2023-12-04T14:34:11;8.27;;;4.63;;
75073;SDS011;63652;51.526;5.080;2023-12-04T14:36:36;11.98;;;4.50;;
75073;SDS011;63652;51.526;5.080;2023-12-04T14:39:02;6.05;;;3.38;;
75073;SDS011;63652;51.526;5.080;2023-12-04T14:41:28;11.40;;;5.13;;
75073;SDS011;63652;51.526;5.080;2023-12-04T14:43:56;7.85;;;3.03;;